sensor_id;sensor_type;location;lat;lon;timestamp;pressure;altitude;pressure_sealevel;temperature;humidity
54816;BME280;40715;55.752;37.884;2023-06-22T00:01:46;99280.91;;;31.80;22.97
54816;BME280;40715;55.752;37.884;2023-06-22T00:04:14;99277.16;;;31.81;23.31
54816;BME280;40715;55.752;37.884;2023-06-22T00:06:41;99276.28;;;31.81;22.91
54816;BME280;40715;55.752;37.884;2023-06-22T00:09:08;99279.00;;;31.81;23.37
54816;BME280;40715;55.752;37.884;2023-06-22T00:11:37;99273.75;;;31.79;23.32
54816;BME280;40715;55.752;37.884;2023-06-22T00:14:04;99271.19;;;31.78;23.15
54816;BME280;40715;55.752;37.884;2023-06-22T00:16:32;99274.78;;;31.78;23.33
54816;BME280;40715;55.752;37.884;2023-06-22T00:18:59;99279.38;;;31.78;23.10
54816;BME280;40715;55.752;37.884;2023-06-22T00:21:27;99282.28;;;31.76;23.50
54816;BME280;40715;55.752;37.884;2023-06-22T00:23:54;99282.28;;;31.76;23.24
54816;BME280;40715;55.752;37.884;2023-06-22T00:26:22;99284.81;;;31.78;23.52
54816;BME280;40715;55.752;37.884;2023-06-22T00:28:49;99273.81;;;31.71;23.02
54816;BME280;40715;55.752;37.884;2023-06-22T00:31:16;99289.44;;;31.77;23.46
54816;BME280;40715;55.752;37.884;2023-06-22T00:33:43;99287.72;;;31.76;23.55
54816;BME280;40715;55.752;37.884;2023-06-22T00:36:10;99285.88;;;31.77;23.39
54816;BME280;40715;55.752;37.884;2023-06-22T00:38:40;99285.00;;;31.76;23.13
54816;BME280;40715;55.752;37.884;2023-06-22T00:41:07;99283.28;;;31.75;23.56
54816;BME280;40715;55.752;37.884;2023-06-22T00:43:35;99269.03;;;31.73;23.29
54816;BME280;40715;55.752;37.884;2023-06-22T00:46:02;99279.09;;;31.73;23.70
54816;BME280;40715;55.752;37.884;2023-06-22T00:48:29;99270.03;;;31.72;23.26
54816;BME280;40715;55.752;37.884;2023-06-22T00:50:56;99275.50;;;31.72;23.25
54816;BME280;40715;55.752;37.884;2023-06-22T00:53:23;99278.22;;;31.72;23.25
54816;BME280;40715;55.752;37.884;2023-06-22T00:55:50;99278.22;;;31.72;23.33
54816;BME280;40715;55.752;37.884;2023-06-22T00:58:19;99268.53;;;31.70;23.73
54816;BME280;40715;55.752;37.884;2023-06-22T01:00:49;99279.41;;;31.70;23.48
54816;BME280;40715;55.752;37.884;2023-06-22T01:03:37;99279.81;;;31.90;23.71
54816;BME280;40715;55.752;37.884;2023-06-22T01:06:10;99274.28;;;31.75;23.57
54816;BME280;40715;55.752;37.884;2023-06-22T01:08:50;99280.91;;;31.80;23.37
54816;BME280;40715;55.752;37.884;2023-06-22T01:11:23;99273.13;;;31.69;23.52
54816;BME280;40715;55.752;37.884;2023-06-22T01:16:45;99279.78;;;31.66;23.84
54816;BME280;40715;55.752;37.884;2023-06-22T01:21:58;99283.38;;;31.67;23.55
54816;BME280;40715;55.752;37.884;2023-06-22T01:24:32;99288.13;;;31.65;23.84
54816;BME280;40715;55.752;37.884;2023-06-22T01:29:33;99291.03;;;31.63;23.97
54816;BME280;40715;55.752;37.884;2023-06-22T01:32:04;99280.16;;;31.63;23.78
54816;BME280;40715;55.752;37.884;2023-06-22T01:34:35;99279.13;;;31.64;23.82
54816;BME280;40715;55.752;37.884;2023-06-22T01:37:04;99288.31;;;31.63;23.82
54816;BME280;40715;55.752;37.884;2023-06-22T01:39:32;99284.56;;;31.64;24.04
54816;BME280;40715;55.752;37.884;2023-06-22T01:41:59;99285.59;;;31.63;24.19
54816;BME280;40715;55.752;37.884;2023-06-22T01:44:28;99294.44;;;31.65;23.78
54816;BME280;40715;55.752;37.884;2023-06-22T01:46:55;99283.56;;;31.65;24.11
54816;BME280;40715;55.752;37.884;2023-06-22T01:49:23;99286.75;;;31.69;24.25
54816;BME280;40715;55.752;37.884;2023-06-22T01:51:50;99279.59;;;31.68;23.87
54816;BME280;40715;55.752;37.884;2023-06-22T01:54:17;99282.31;;;31.68;23.89
54816;BME280;40715;55.752;37.884;2023-06-22T01:56:44;99286.09;;;31.67;23.93
54816;BME280;40715;55.752;37.884;2023-06-22T01:59:21;99294.38;;;31.74;23.98
54816;BME280;40715;55.752;37.884;2023-06-22T02:02:01;99287.91;;;31.75;24.33
54816;BME280;40715;55.752;37.884;2023-06-22T02:04:44;99285.53;;;31.72;24.17
54816;BME280;40715;55.752;37.884;2023-06-22T02:07:15;99286.94;;;31.67;24.26
54816;BME280;40715;55.752;37.884;2023-06-22T02:09:45;99288.81;;;31.67;24.32
54816;BME280;40715;55.752;37.884;2023-06-22T02:12:17;99285.91;;;31.69;24.03
54816;BME280;40715;55.752;37.884;2023-06-22T02:14:46;99284.38;;;31.66;24.45
54816;BME280;40715;55.752;37.884;2023-06-22T02:17:13;99290.50;;;31.68;23.90
54816;BME280;40715;55.752;37.884;2023-06-22T02:19:41;99281.81;;;31.73;24.27
54816;BME280;40715;55.752;37.884;2023-06-22T02:22:08;99270.91;;;31.73;24.21
54816;BME280;40715;55.752;37.884;2023-06-22T02:24:37;99272.41;;;31.75;24.19
54816;BME280;40715;55.752;37.884;2023-06-22T02:27:04;99261.50;;;31.75;24.02
54816;BME280;40715;55.752;37.884;2023-06-22T02:29:33;99263.41;;;31.75;24.35
54816;BME280;40715;55.752;37.884;2023-06-22T02:32:00;99259.09;;;31.80;23.90
54816;BME280;40715;55.752;37.884;2023-06-22T02:34:28;99254.50;;;31.81;24.50
54816;BME280;40715;55.752;37.884;2023-06-22T02:36:55;99255.19;;;31.83;24.22
54816;BME280;40715;55.752;37.884;2023-06-22T02:39:23;99246.81;;;31.84;24.11
54816;BME280;40715;55.752;37.884;2023-06-22T02:41:53;99251.25;;;31.86;23.95
54816;BME280;40715;55.752;37.884;2023-06-22T02:44:21;99246.44;;;31.88;24.00
54816;BME280;40715;55.752;37.884;2023-06-22T02:46:48;99250.19;;;31.87;24.04
54816;BME280;40715;55.752;37.884;2023-06-22T02:49:15;99250.88;;;31.89;23.98
54816;BME280;40715;55.752;37.884;2023-06-22T02:51:46;99249.69;;;31.91;23.93
54816;BME280;40715;55.752;37.884;2023-06-22T02:54:14;99239.81;;;31.90;24.28
54816;BME280;40715;55.752;37.884;2023-06-22T02:56:41;99240.44;;;31.92;23.93
54816;BME280;40715;55.752;37.884;2023-06-22T02:59:11;99238.41;;;31.94;24.20
54816;BME280;40715;55.752;37.884;2023-06-22T03:01:38;99237.53;;;31.94;24.29
54816;BME280;40715;55.752;37.884;2023-06-22T03:04:07;99228.84;;;31.98;24.40
54816;BME280;40715;55.752;37.884;2023-06-22T03:06:36;99232.59;;;31.97;23.91
54816;BME280;40715;55.752;37.884;2023-06-22T03:09:04;99232.41;;;31.99;24.42
54816;BME280;40715;55.752;37.884;2023-06-22T03:11:33;99231.00;;;32.03;24.35
54816;BME280;40715;55.752;37.884;2023-06-22T03:14:01;99231.84;;;32.04;23.93
54816;BME280;40715;55.752;37.884;2023-06-22T03:16:28;99237.78;;;32.07;24.01
54816;BME280;40715;55.752;37.884;2023-06-22T03:18:56;99243.91;;;32.09;23.91
54816;BME280;40715;55.752;37.884;2023-06-22T03:21:23;99236.59;;;32.10;23.92
54816;BME280;40715;55.752;37.884;2023-06-22T03:23:51;99235.34;;;32.12;23.85
54816;BME280;40715;55.752;37.884;2023-06-22T03:26:18;99239.81;;;32.13;24.25
54816;BME280;40715;55.752;37.884;2023-06-22T03:28:46;99233.16;;;32.16;24.23
54816;BME280;40715;55.752;37.884;2023-06-22T03:31:13;99225.63;;;32.18;24.36
54816;BME280;40715;55.752;37.884;2023-06-22T03:33:40;99233.09;;;32.24;24.34
54816;BME280;40715;55.752;37.884;2023-06-22T03:36:08;99231.00;;;32.26;24.46
54816;BME280;40715;55.752;37.884;2023-06-22T03:38:35;99237.78;;;32.30;24.44
54816;BME280;40715;55.752;37.884;2023-06-22T03:41:02;99235.75;;;32.32;24.64
54816;BME280;40715;55.752;37.884;2023-06-22T03:43:29;99225.31;;;32.36;24.73
54816;BME280;40715;55.752;37.884;2023-06-22T03:45:56;99225.78;;;32.40;24.87
54816;BME280;40715;55.752;37.884;2023-06-22T03:48:23;99225.41;;;32.43;25.43
54816;BME280;40715;55.752;37.884;2023-06-22T03:50:50;99217.50;;;32.48;25.41
54816;BME280;40715;55.752;37.884;2023-06-22T03:53:19;99219.69;;;32.52;25.70
54816;BME280;40715;55.752;37.884;2023-06-22T03:55:51;99211.97;;;32.56;25.48
54816;BME280;40715;55.752;37.884;2023-06-22T03:58:19;99217.91;;;32.60;25.98
54816;BME280;40715;55.752;37.884;2023-06-22T04:00:47;99221.78;;;32.65;26.09
54816;BME280;40715;55.752;37.884;2023-06-22T04:03:15;99218.50;;;32.70;25.87
54816;BME280;40715;55.752;37.884;2023-06-22T04:05:43;99213.50;;;32.74;26.16
54816;BME280;40715;55.752;37.884;2023-06-22T04:08:10;99209.19;;;32.79;26.23
54816;BME280;40715;55.752;37.884;2023-06-22T04:10:37;99216.25;;;32.89;26.31
54816;BME280;40715;55.752;37.884;2023-06-22T04:13:04;99211.72;;;32.96;26.49
54816;BME280;40715;55.752;37.884;2023-06-22T04:15:31;99210.94;;;33.02;26.08
54816;BME280;40715;55.752;37.884;2023-06-22T04:17:58;99205.78;;;33.07;26.47
54816;BME280;40715;55.752;37.884;2023-06-22T04:20:25;99202.75;;;33.17;26.36
54816;BME280;40715;55.752;37.884;2023-06-22T04:22:55;99208.16;;;33.25;26.38
54816;BME280;40715;55.752;37.884;2023-06-22T04:25:22;99203.97;;;33.29;26.24
54816;BME280;40715;55.752;37.884;2023-06-22T04:27:49;99205.94;;;33.35;26.17
54816;BME280;40715;55.752;37.884;2023-06-22T04:30:17;99195.28;;;33.41;26.46
54816;BME280;40715;55.752;37.884;2023-06-22T04:32:45;99189.06;;;33.47;26.33
54816;BME280;40715;55.752;37.884;2023-06-22T04:35:12;99192.31;;;33.57;25.98
54816;BME280;40715;55.752;37.884;2023-06-22T04:37:40;99191.81;;;33.68;26.39
54816;BME280;40715;55.752;37.884;2023-06-22T04:40:07;99189.19;;;33.75;26.18
54816;BME280;40715;55.752;37.884;2023-06-22T04:42:37;99190.72;;;33.84;26.13
54816;BME280;40715;55.752;37.884;2023-06-22T04:45:05;99189.16;;;33.97;26.16
54816;BME280;40715;55.752;37.884;2023-06-22T04:47:32;99184.38;;;34.05;25.97
54816;BME280;40715;55.752;37.884;2023-06-22T04:49:59;99193.50;;;34.13;26.04
54816;BME280;40715;55.752;37.884;2023-06-22T04:52:26;99181.38;;;34.22;26.21
54816;BME280;40715;55.752;37.884;2023-06-22T04:54:53;99198.72;;;34.29;25.83
54816;BME280;40715;55.752;37.884;2023-06-22T04:57:24;99190.31;;;34.37;25.81
54816;BME280;40715;55.752;37.884;2023-06-22T04:59:59;99197.56;;;34.45;25.92
54816;BME280;40715;55.752;37.884;2023-06-22T05:02:41;99193.81;;;34.53;25.77
54816;BME280;40715;55.752;37.884;2023-06-22T05:05:08;99189.81;;;34.55;25.89
54816;BME280;40715;55.752;37.884;2023-06-22T05:07:44;99193.44;;;34.63;25.88
54816;BME280;40715;55.752;37.884;2023-06-22T05:10:12;99190.50;;;34.64;25.85
54816;BME280;40715;55.752;37.884;2023-06-22T05:12:40;99195.78;;;34.66;25.78
54816;BME280;40715;55.752;37.884;2023-06-22T05:15:09;99193.09;;;34.72;25.93
54816;BME280;40715;55.752;37.884;2023-06-22T05:17:38;99196.25;;;34.76;25.82
54816;BME280;40715;55.752;37.884;2023-06-22T05:20:12;99187.69;;;34.79;25.97
54816;BME280;40715;55.752;37.884;2023-06-22T05:22:40;99182.41;;;34.78;25.88
54816;BME280;40715;55.752;37.884;2023-06-22T05:25:09;99190.00;;;34.82;25.91
54816;BME280;40715;55.752;37.884;2023-06-22T05:27:37;99188.56;;;34.93;26.09
54816;BME280;40715;55.752;37.884;2023-06-22T05:30:08;99191.34;;;35.00;25.80
54816;BME280;40715;55.752;37.884;2023-06-22T05:32:36;99188.84;;;35.05;25.86
54816;BME280;40715;55.752;37.884;2023-06-22T05:35:03;99182.97;;;35.08;25.71
54816;BME280;40715;55.752;37.884;2023-06-22T05:37:31;99181.53;;;35.12;25.81
54816;BME280;40715;55.752;37.884;2023-06-22T05:39:58;99181.97;;;35.22;25.63
54816;BME280;40715;55.752;37.884;2023-06-22T05:42:25;99181.13;;;35.29;25.59
54816;BME280;40715;55.752;37.884;2023-06-22T05:44:53;99188.56;;;35.35;25.12
54816;BME280;40715;55.752;37.884;2023-06-22T05:47:20;99194.91;;;35.42;25.36
54816;BME280;40715;55.752;37.884;2023-06-22T05:49:47;99192.16;;;35.49;25.31
54816;BME280;40715;55.752;37.884;2023-06-22T05:52:14;99188.84;;;35.53;25.53
54816;BME280;40715;55.752;37.884;2023-06-22T05:54:41;99180.81;;;35.58;25.00
54816;BME280;40715;55.752;37.884;2023-06-22T05:57:09;99185.69;;;35.63;25.27
54816;BME280;40715;55.752;37.884;2023-06-22T05:59:37;99182.13;;;35.69;25.17
54816;BME280;40715;55.752;37.884;2023-06-22T06:02:04;99184.22;;;35.74;24.98
54816;BME280;40715;55.752;37.884;2023-06-22T06:04:31;99188.69;;;35.82;24.91
54816;BME280;40715;55.752;37.884;2023-06-22T06:06:58;99185.94;;;35.88;24.94
54816;BME280;40715;55.752;37.884;2023-06-22T06:09:26;99187.66;;;35.96;24.96
54816;BME280;40715;55.752;37.884;2023-06-22T06:11:53;99181.94;;;36.04;24.87
54816;BME280;40715;55.752;37.884;2023-06-22T06:14:20;99168.03;;;35.99;25.02
54816;BME280;40715;55.752;37.884;2023-06-22T06:16:48;99194.41;;;36.20;24.73
54816;BME280;40715;55.752;37.884;2023-06-22T06:19:15;99187.44;;;36.31;24.47
54816;BME280;40715;55.752;37.884;2023-06-22T06:21:43;99181.53;;;36.41;24.24
54816;BME280;40715;55.752;37.884;2023-06-22T06:24:10;99183.41;;;36.54;24.46
54816;BME280;40715;55.752;37.884;2023-06-22T06:26:37;99177.03;;;36.60;24.12
54816;BME280;40715;55.752;37.884;2023-06-22T06:29:05;99183.78;;;36.71;24.39
54816;BME280;40715;55.752;37.884;2023-06-22T06:31:33;99189.06;;;36.79;24.06
54816;BME280;40715;55.752;37.884;2023-06-22T06:34:01;99182.91;;;36.84;24.28
54816;BME280;40715;55.752;37.884;2023-06-22T06:36:28;99193.47;;;36.87;24.11
54816;BME280;40715;55.752;37.884;2023-06-22T06:38:55;99194.28;;;36.94;23.48
54816;BME280;40715;55.752;37.884;2023-06-22T06:41:22;99198.28;;;36.98;23.60
54816;BME280;40715;55.752;37.884;2023-06-22T06:43:50;99194.06;;;36.95;23.55
54816;BME280;40715;55.752;37.884;2023-06-22T06:46:17;99193.81;;;37.04;23.59
54816;BME280;40715;55.752;37.884;2023-06-22T06:48:47;99184.28;;;37.13;23.31
54816;BME280;40715;55.752;37.884;2023-06-22T06:51:14;99177.47;;;37.22;23.59
54816;BME280;40715;55.752;37.884;2023-06-22T06:53:41;99182.75;;;37.30;23.05
54816;BME280;40715;55.752;37.884;2023-06-22T06:56:08;99181.03;;;37.36;23.02
54816;BME280;40715;55.752;37.884;2023-06-22T06:58:41;99194.97;;;37.41;23.42
54816;BME280;40715;55.752;37.884;2023-06-22T07:01:08;99169.78;;;37.44;23.21
54816;BME280;40715;55.752;37.884;2023-06-22T07:03:36;99169.38;;;37.41;23.20
54816;BME280;40715;55.752;37.884;2023-06-22T07:06:03;99179.09;;;37.43;22.95
54816;BME280;40715;55.752;37.884;2023-06-22T07:08:30;99186.28;;;37.44;23.31
54816;BME280;40715;55.752;37.884;2023-06-22T07:10:58;99179.91;;;37.44;22.68
54816;BME280;40715;55.752;37.884;2023-06-22T07:13:28;99179.28;;;37.48;22.78
54816;BME280;40715;55.752;37.884;2023-06-22T07:15:55;99182.03;;;37.48;22.97
54816;BME280;40715;55.752;37.884;2023-06-22T07:18:23;99181.38;;;37.46;23.07
54816;BME280;40715;55.752;37.884;2023-06-22T07:20:50;99179.50;;;37.47;22.91
54816;BME280;40715;55.752;37.884;2023-06-22T07:23:17;99174.00;;;37.47;22.66
54816;BME280;40715;55.752;37.884;2023-06-22T07:25:45;99171.44;;;37.45;22.50
54816;BME280;40715;55.752;37.884;2023-06-22T07:28:12;99178.47;;;37.41;22.42
54816;BME280;40715;55.752;37.884;2023-06-22T07:30:39;99172.78;;;37.36;22.39
54816;BME280;40715;55.752;37.884;2023-06-22T07:33:06;99178.50;;;37.35;22.06
54816;BME280;40715;55.752;37.884;2023-06-22T07:35:35;99180.63;;;37.33;22.59
54816;BME280;40715;55.752;37.884;2023-06-22T07:38:02;99172.59;;;37.31;22.52
54816;BME280;40715;55.752;37.884;2023-06-22T07:40:32;99169.84;;;37.31;22.19
54816;BME280;40715;55.752;37.884;2023-06-22T07:43:01;99164.56;;;37.36;22.65
54816;BME280;40715;55.752;37.884;2023-06-22T07:45:28;99172.97;;;37.41;22.66
54816;BME280;40715;55.752;37.884;2023-06-22T07:47:55;99177.38;;;37.49;22.81
54816;BME280;40715;55.752;37.884;2023-06-22T07:50:22;99184.94;;;37.54;22.41
54816;BME280;40715;55.752;37.884;2023-06-22T07:52:49;99175.63;;;37.55;22.17
54816;BME280;40715;55.752;37.884;2023-06-22T07:55:17;99175.66;;;37.48;22.49
54816;BME280;40715;55.752;37.884;2023-06-22T07:57:47;99164.81;;;37.28;22.54
54816;BME280;40715;55.752;37.884;2023-06-22T08:00:14;99168.03;;;37.11;22.31
54816;BME280;40715;55.752;37.884;2023-06-22T08:02:44;99177.81;;;36.94;22.82
54816;BME280;40715;55.752;37.884;2023-06-22T08:05:14;99167.31;;;36.77;22.55
54816;BME280;40715;55.752;37.884;2023-06-22T08:07:50;99153.38;;;36.66;22.75
54816;BME280;40715;55.752;37.884;2023-06-22T08:10:20;99160.41;;;36.55;22.90
54816;BME280;40715;55.752;37.884;2023-06-22T08:12:47;99145.22;;;36.45;22.65
54816;BME280;40715;55.752;37.884;2023-06-22T08:15:15;99144.00;;;36.35;22.84
54816;BME280;40715;55.752;37.884;2023-06-22T08:17:42;99146.50;;;36.30;22.45
54816;BME280;40715;55.752;37.884;2023-06-22T08:20:12;99143.13;;;36.21;22.82
54816;BME280;40715;55.752;37.884;2023-06-22T08:22:43;99148.63;;;36.21;22.49
54816;BME280;40715;55.752;37.884;2023-06-22T08:25:11;99139.78;;;36.19;22.51
54816;BME280;40715;55.752;37.884;2023-06-22T08:27:40;99130.91;;;36.17;22.57
54816;BME280;40715;55.752;37.884;2023-06-22T08:30:07;99133.84;;;36.15;22.47
54816;BME280;40715;55.752;37.884;2023-06-22T08:32:37;99130.91;;;36.10;22.10
54816;BME280;40715;55.752;37.884;2023-06-22T08:35:05;99140.59;;;36.13;22.21
54816;BME280;40715;55.752;37.884;2023-06-22T08:37:35;99123.75;;;36.09;21.93
54816;BME280;40715;55.752;37.884;2023-06-22T08:40:05;99134.72;;;36.09;21.91
54816;BME280;40715;55.752;37.884;2023-06-22T08:42:32;99118.25;;;36.09;22.06
54816;BME280;40715;55.752;37.884;2023-06-22T08:45:00;99131.53;;;35.99;21.85
54816;BME280;40715;55.752;37.884;2023-06-22T08:47:32;99135.78;;;35.88;22.21
54816;BME280;40715;55.752;37.884;2023-06-22T08:50:00;99119.75;;;35.91;21.85
54816;BME280;40715;55.752;37.884;2023-06-22T08:52:33;99127.53;;;36.08;22.29
54816;BME280;40715;55.752;37.884;2023-06-22T08:55:01;99123.28;;;36.25;22.07
54816;BME280;40715;55.752;37.884;2023-06-22T08:57:33;99121.38;;;36.46;21.59
54816;BME280;40715;55.752;37.884;2023-06-22T09:00:00;99112.06;;;36.60;21.67
54816;BME280;40715;55.752;37.884;2023-06-22T09:02:34;99111.38;;;36.72;21.59
54816;BME280;40715;55.752;37.884;2023-06-22T09:05:03;99117.50;;;36.81;21.64
54816;BME280;40715;55.752;37.884;2023-06-22T09:07:32;99116.38;;;36.88;21.68
54816;BME280;40715;55.752;37.884;2023-06-22T09:09:59;99114.06;;;36.92;21.43
54816;BME280;40715;55.752;37.884;2023-06-22T09:12:32;99103.91;;;36.92;21.48
54816;BME280;40715;55.752;37.884;2023-06-22T09:15:01;99106.84;;;36.97;21.78
54816;BME280;40715;55.752;37.884;2023-06-22T09:17:34;99099.66;;;36.96;21.13
54816;BME280;40715;55.752;37.884;2023-06-22T09:20:03;99102.84;;;36.93;21.48
54816;BME280;40715;55.752;37.884;2023-06-22T09:22:34;99097.59;;;36.92;21.49
54816;BME280;40715;55.752;37.884;2023-06-22T09:25:01;99104.34;;;36.89;21.44
54816;BME280;40715;55.752;37.884;2023-06-22T09:27:31;99106.50;;;36.87;21.61
54816;BME280;40715;55.752;37.884;2023-06-22T09:30:01;99105.25;;;36.83;21.59
54816;BME280;40715;55.752;37.884;2023-06-22T09:32:32;99111.78;;;36.82;21.50
54816;BME280;40715;55.752;37.884;2023-06-22T09:35:04;99108.63;;;36.78;21.58
54816;BME280;40715;55.752;37.884;2023-06-22T09:37:33;99095.75;;;36.72;21.34
54816;BME280;40715;55.752;37.884;2023-06-22T09:40:01;99092.81;;;36.67;21.63
54816;BME280;40715;55.752;37.884;2023-06-22T09:42:30;99090.28;;;36.66;21.63
54816;BME280;40715;55.752;37.884;2023-06-22T09:44:57;99095.59;;;36.60;21.79
54816;BME280;40715;55.752;37.884;2023-06-22T09:47:24;99090.75;;;36.56;21.75
54816;BME280;40715;55.752;37.884;2023-06-22T09:49:51;99082.09;;;36.52;21.54
54816;BME280;40715;55.752;37.884;2023-06-22T09:52:18;99094.56;;;36.48;21.92
54816;BME280;40715;55.752;37.884;2023-06-22T09:54:47;99076.84;;;36.44;22.01
54816;BME280;40715;55.752;37.884;2023-06-22T09:57:14;99093.75;;;36.41;22.08
54816;BME280;40715;55.752;37.884;2023-06-22T09:59:41;99090.59;;;36.37;22.09
54816;BME280;40715;55.752;37.884;2023-06-22T10:02:08;99088.91;;;36.36;22.06
54816;BME280;40715;55.752;37.884;2023-06-22T10:04:37;99097.59;;;36.33;22.22
54816;BME280;40715;55.752;37.884;2023-06-22T10:07:04;99081.72;;;36.28;22.08
54816;BME280;40715;55.752;37.884;2023-06-22T10:09:32;99090.16;;;36.27;22.02
54816;BME280;40715;55.752;37.884;2023-06-22T10:11:59;99074.78;;;36.26;22.13
54816;BME280;40715;55.752;37.884;2023-06-22T10:14:26;99075.41;;;36.21;22.28
54816;BME280;40715;55.752;37.884;2023-06-22T10:16:53;99077.75;;;36.18;22.21
54816;BME280;40715;55.752;37.884;2023-06-22T10:19:22;99081.75;;;36.15;22.09
54816;BME280;40715;55.752;37.884;2023-06-22T10:21:49;99069.53;;;36.11;22.22
54816;BME280;40715;55.752;37.884;2023-06-22T10:24:16;99062.56;;;36.08;22.18
54816;BME280;40715;55.752;37.884;2023-06-22T10:26:43;99061.31;;;36.04;22.32
54816;BME280;40715;55.752;37.884;2023-06-22T10:29:10;99066.19;;;36.02;22.54
54816;BME280;40715;55.752;37.884;2023-06-22T10:31:43;99063.00;;;35.99;22.52
54816;BME280;40715;55.752;37.884;2023-06-22T10:34:10;99053.13;;;35.98;22.57
54816;BME280;40715;55.752;37.884;2023-06-22T10:36:37;99051.22;;;35.91;22.44
54816;BME280;40715;55.752;37.884;2023-06-22T10:39:04;99044.91;;;35.91;22.71
54816;BME280;40715;55.752;37.884;2023-06-22T10:41:31;99038.81;;;35.89;22.36
54816;BME280;40715;55.752;37.884;2023-06-22T10:43:58;99042.81;;;35.86;22.37
54816;BME280;40715;55.752;37.884;2023-06-22T10:46:25;99034.16;;;35.83;22.42
54816;BME280;40715;55.752;37.884;2023-06-22T10:48:55;99027.38;;;35.78;22.58
54816;BME280;40715;55.752;37.884;2023-06-22T10:51:24;99032.69;;;35.73;22.68
54816;BME280;40715;55.752;37.884;2023-06-22T10:53:52;99043.00;;;35.71;22.60
54816;BME280;40715;55.752;37.884;2023-06-22T10:56:19;99033.94;;;35.71;22.66
54816;BME280;40715;55.752;37.884;2023-06-22T10:58:47;99036.91;;;35.69;22.39
54816;BME280;40715;55.752;37.884;2023-06-22T11:01:15;99042.38;;;35.69;22.87
54816;BME280;40715;55.752;37.884;2023-06-22T11:03:59;99036.91;;;35.69;22.54
54816;BME280;40715;55.752;37.884;2023-06-22T11:06:29;99024.25;;;35.68;22.52
54816;BME280;40715;55.752;37.884;2023-06-22T11:08:56;99026.97;;;35.68;22.91
54816;BME280;40715;55.752;37.884;2023-06-22T11:11:38;99026.75;;;35.70;22.66
54816;BME280;40715;55.752;37.884;2023-06-22T11:14:05;99035.19;;;35.68;22.65
54816;BME280;40715;55.752;37.884;2023-06-22T11:16:34;99035.84;;;35.70;22.87
54816;BME280;40715;55.752;37.884;2023-06-22T11:19:02;99033.09;;;35.70;22.84
54816;BME280;40715;55.752;37.884;2023-06-22T11:21:31;99029.28;;;35.71;22.99
54816;BME280;40715;55.752;37.884;2023-06-22T11:23:59;99018.53;;;35.70;22.90
54816;BME280;40715;55.752;37.884;2023-06-22T11:26:26;99019.81;;;35.67;22.83
54816;BME280;40715;55.752;37.884;2023-06-22T11:28:54;99021.94;;;35.65;23.14
54816;BME280;40715;55.752;37.884;2023-06-22T11:31:21;99024.66;;;35.65;23.19
54816;BME280;40715;55.752;37.884;2023-06-22T11:33:52;99020.22;;;35.64;23.21
54816;BME280;40715;55.752;37.884;2023-06-22T11:36:19;99014.34;;;35.60;23.45
54816;BME280;40715;55.752;37.884;2023-06-22T11:38:47;99014.56;;;35.59;23.48
54816;BME280;40715;55.752;37.884;2023-06-22T11:41:14;99005.50;;;35.58;23.28
54816;BME280;40715;55.752;37.884;2023-06-22T11:43:41;99011.19;;;35.57;23.61
54816;BME280;40715;55.752;37.884;2023-06-22T11:46:10;99013.09;;;35.56;23.71
54816;BME280;40715;55.752;37.884;2023-06-22T11:48:37;99010.56;;;35.55;23.91
54816;BME280;40715;55.752;37.884;2023-06-22T11:51:05;99003.59;;;35.52;23.94
54816;BME280;40715;55.752;37.884;2023-06-22T11:53:35;98997.91;;;35.54;23.90
54816;BME280;40715;55.752;37.884;2023-06-22T11:56:02;98986.13;;;35.53;23.99
54816;BME280;40715;55.752;37.884;2023-06-22T11:58:29;98988.66;;;35.55;23.99
54816;BME280;40715;55.752;37.884;2023-06-22T12:00:56;98986.97;;;35.54;24.05
54816;BME280;40715;55.752;37.884;2023-06-22T12:03:23;98982.53;;;35.53;23.94
54816;BME280;40715;55.752;37.884;2023-06-22T12:05:51;98981.91;;;35.51;23.99
54816;BME280;40715;55.752;37.884;2023-06-22T12:08:19;98977.91;;;35.53;23.94
54816;BME280;40715;55.752;37.884;2023-06-22T12:10:46;98980.88;;;35.52;23.88
54816;BME280;40715;55.752;37.884;2023-06-22T12:13:13;98961.69;;;35.52;24.11
54816;BME280;40715;55.752;37.884;2023-06-22T12:15:40;98966.53;;;35.50;24.06
54816;BME280;40715;55.752;37.884;2023-06-22T12:18:07;98961.25;;;35.48;23.95
54816;BME280;40715;55.752;37.884;2023-06-22T12:20:35;98961.47;;;35.47;24.11
54816;BME280;40715;55.752;37.884;2023-06-22T12:23:04;98954.09;;;35.47;24.14
54816;BME280;40715;55.752;37.884;2023-06-22T12:25:31;98946.31;;;35.44;24.12
54816;BME280;40715;55.752;37.884;2023-06-22T12:27:58;98948.44;;;35.42;24.14
54816;BME280;40715;55.752;37.884;2023-06-22T12:30:25;98934.50;;;35.37;24.17
54816;BME280;40715;55.752;37.884;2023-06-22T12:32:52;98941.03;;;35.36;24.09
54816;BME280;40715;55.752;37.884;2023-06-22T12:35:20;98936.84;;;35.33;24.29
54816;BME280;40715;55.752;37.884;2023-06-22T12:37:48;98932.41;;;35.32;24.26
54816;BME280;40715;55.752;37.884;2023-06-22T12:40:16;98931.34;;;35.26;24.38
54816;BME280;40715;55.752;37.884;2023-06-22T12:42:44;98927.13;;;35.24;24.20
54816;BME280;40715;55.752;37.884;2023-06-22T12:45:12;98930.69;;;35.24;24.43
54816;BME280;40715;55.752;37.884;2023-06-22T12:47:39;98921.66;;;35.24;24.35
54816;BME280;40715;55.752;37.884;2023-06-22T12:50:06;98923.34;;;35.25;24.31
54816;BME280;40715;55.752;37.884;2023-06-22T12:52:36;98925.88;;;35.26;24.25
54816;BME280;40715;55.752;37.884;2023-06-22T12:55:06;98911.53;;;35.24;24.53
54816;BME280;40715;55.752;37.884;2023-06-22T12:57:33;98925.66;;;35.28;24.31
54816;BME280;40715;55.752;37.884;2023-06-22T13:00:00;98924.44;;;35.31;24.15
54816;BME280;40715;55.752;37.884;2023-06-22T13:02:35;98918.50;;;35.34;24.20
54816;BME280;40715;55.752;37.884;2023-06-22T13:05:05;98912.22;;;35.33;24.38